MSC Ingrid — HOHA — position and weather

sailwx.info

Track history (hours):
 
Tides and Currents Weather Stations Pressure Air Temp Water Temp Dewpoint Dewpoint Depression Visibility Wind Speed Wind Dir Waves Ship Positions

MSC Ingrid

Last reported at 2015-Mar-30 08:33 UTC. Time now 2015-Mar-30 09:23 UTC.
Position N 39°53' W 073°41'.

Length 294 m; draft 10.9 m.

Type: Ship (hazmat cat A). MMSI: 354505000.

Date/timePositionNaut miles runAvg speedWind from/ knotsBaromVisibWave heightAir tempDewpointWater temp
2015-Mar-30 08:33N 39°53' W 073°41'11 9.1
2015-Mar-30 07:23N 39°42' W 073°41'8 9.6
2015-Mar-30 06:33N 39°35' W 073°45'9 9.5
2015-Mar-30 05:33N 39°26' W 073°48'  
2015-Mar-26 04:33N 27°26' W 079°20'2121.2
2015-Mar-26 03:33N 27°05' W 079°18'2020.1
2015-Mar-26 02:34N 26°46' W 079°12'1918.6
2015-Mar-26 01:32N 26°34' W 078°55'8 8.0
2015-Mar-26 00:30N 26°31' W 078°46'0 0.1
2015-Mar-25 23:33N 26°31' W 078°46'0 0.0
2015-Mar-25 22:27N 26°31' W 078°46'0 0.0
2015-Mar-25 21:18N 26°31' W 078°46'0 0.0
2015-Mar-25 20:30N 26°31' W 078°46'  
Track history (hours):
 
Tides and Currents Weather Stations Pressure Air Temp Water Temp Dewpoint Dewpoint Depression Visibility Wind Speed Wind Dir Waves Ship Positions

MSC Ingrid

Last reported at 2015-Mar-30 08:33 UTC. Time now 2015-Mar-30 09:23 UTC.
Position N 39°53' W 073°41'.

Length 294 m; draft 10.9 m.

Type: Ship (hazmat cat A). MMSI: 354505000.

Date/timePositionNaut miles runAvg speedWind from/ knotsBaromVisibWave heightAir tempDewpointWater temp
2015-Mar-30 08:33N 39°53' W 073°41'11 9.1
2015-Mar-30 07:23N 39°42' W 073°41'8 9.6
2015-Mar-30 06:33N 39°35' W 073°45'9 9.5
2015-Mar-30 05:33N 39°26' W 073°48'  
2015-Mar-26 04:33N 27°26' W 079°20'2121.2
2015-Mar-26 03:33N 27°05' W 079°18'2020.1
2015-Mar-26 02:34N 26°46' W 079°12'1918.6
2015-Mar-26 01:32N 26°34' W 078°55'8 8.0
2015-Mar-26 00:30N 26°31' W 078°46'0 0.1
2015-Mar-25 23:33N 26°31' W 078°46'0 0.0
2015-Mar-25 22:27N 26°31' W 078°46'0 0.0
2015-Mar-25 21:18N 26°31' W 078°46'0 0.0
2015-Mar-25 20:30N 26°31' W 078°46'  

Dump ship's entire track history